sensor_id;sensor_type;location;lat;lon;timestamp;pressure;altitude;pressure_sealevel;temperature;humidity
33161;BME280;19522;45.656;11.302;2023-05-21T00:01:33;98108.75;;;15.18;100.00
33161;BME280;19522;45.656;11.302;2023-05-21T00:03:58;98080.19;;;14.95;100.00
33161;BME280;19522;45.656;11.302;2023-05-21T00:06:24;98010.06;;;14.57;100.00
33161;BME280;19522;45.656;11.302;2023-05-21T00:08:49;98043.00;;;14.69;100.00
33161;BME280;19522;45.656;11.302;2023-05-21T00:11:15;98096.28;;;15.04;100.00
33161;BME280;19522;45.656;11.302;2023-05-21T00:13:40;98038.19;;;14.64;100.00
33161;BME280;19522;45.656;11.302;2023-05-21T00:16:06;98044.44;;;14.72;100.00
33161;BME280;19522;45.656;11.302;2023-05-21T00:18:32;98109.97;;;15.04;100.00
33161;BME280;19522;45.656;11.302;2023-05-21T00:20:58;98026.44;;;14.57;100.00
33161;BME280;19522;45.656;11.302;2023-05-21T00:23:24;98121.81;;;15.16;100.00
33161;BME280;19522;45.656;11.302;2023-05-21T00:25:51;98049.00;;;14.78;100.00
33161;BME280;19522;45.656;11.302;2023-05-21T00:28:17;98011.50;;;14.67;100.00
33161;BME280;19522;45.656;11.302;2023-05-21T00:30:42;97994.59;;;14.51;100.00
33161;BME280;19522;45.656;11.302;2023-05-21T00:33:07;98086.78;;;15.06;100.00
33161;BME280;19522;45.656;11.302;2023-05-21T00:35:34;98004.94;;;14.68;100.00
33161;BME280;19522;45.656;11.302;2023-05-21T00:38:00;98026.69;;;14.81;100.00
33161;BME280;19522;45.656;11.302;2023-05-21T00:40:26;98050.09;;;14.95;100.00
33161;BME280;19522;45.656;11.302;2023-05-21T00:42:52;98040.22;;;14.94;100.00
33161;BME280;19522;45.656;11.302;2023-05-21T00:45:21;98086.88;;;15.18;100.00
33161;BME280;19522;45.656;11.302;2023-05-21T00:47:48;97914.06;;;14.10;100.00
33161;BME280;19522;45.656;11.302;2023-05-21T00:50:18;98045.09;;;14.92;100.00
33161;BME280;19522;45.656;11.302;2023-05-21T00:52:44;98007.00;;;14.72;100.00
33161;BME280;19522;45.656;11.302;2023-05-21T00:55:10;98059.38;;;15.13;100.00
33161;BME280;19522;45.656;11.302;2023-05-21T00:57:36;98008.22;;;14.76;100.00
33161;BME280;19522;45.656;11.302;2023-05-21T01:00:03;98098.88;;;15.36;100.00
33161;BME280;19522;45.656;11.302;2023-05-21T01:02:31;98076.84;;;15.31;100.00
33161;BME280;19522;45.656;11.302;2023-05-21T01:04:58;98041.50;;;15.10;100.00
33161;BME280;19522;45.656;11.302;2023-05-21T01:07:24;98027.69;;;15.05;99.78
33161;BME280;19522;45.656;11.302;2023-05-21T01:09:50;97994.03;;;14.86;99.30
33161;BME280;19522;45.656;11.302;2023-05-21T01:12:16;97989.34;;;14.75;99.43
33161;BME280;19522;45.656;11.302;2023-05-21T01:14:43;98026.09;;;14.98;99.68
33161;BME280;19522;45.656;11.302;2023-05-21T01:17:09;98025.78;;;15.06;98.90
33161;BME280;19522;45.656;11.302;2023-05-21T01:19:37;97998.00;;;14.90;98.00
33161;BME280;19522;45.656;11.302;2023-05-21T01:22:06;98082.94;;;15.33;97.86
33161;BME280;19522;45.656;11.302;2023-05-21T01:24:32;98080.34;;;15.38;98.73
33161;BME280;19522;45.656;11.302;2023-05-21T01:27:01;98008.00;;;14.96;98.12
33161;BME280;19522;45.656;11.302;2023-05-21T01:29:27;98031.56;;;15.16;98.27
33161;BME280;19522;45.656;11.302;2023-05-21T01:32:10;98083.50;;;15.53;98.04
33161;BME280;19522;45.656;11.302;2023-05-21T01:35:04;98094.94;;;15.50;98.11
33161;BME280;19522;45.656;11.302;2023-05-21T01:37:50;98088.78;;;15.55;97.86
33161;BME280;19522;45.656;11.302;2023-05-21T01:40:21;98075.53;;;15.52;98.20
33161;BME280;19522;45.656;11.302;2023-05-21T01:42:47;97995.88;;;14.92;98.11
33161;BME280;19522;45.656;11.302;2023-05-21T01:45:17;98089.38;;;15.57;98.14
33161;BME280;19522;45.656;11.302;2023-05-21T01:47:46;97999.44;;;14.93;98.61
33161;BME280;19522;45.656;11.302;2023-05-21T01:50:13;97972.56;;;14.71;100.00
33161;BME280;19522;45.656;11.302;2023-05-21T01:52:38;98060.13;;;15.20;100.00
33161;BME280;19522;45.656;11.302;2023-05-21T01:55:06;97990.59;;;14.72;100.00
33161;BME280;19522;45.656;11.302;2023-05-21T01:57:31;98024.88;;;15.12;100.00
33161;BME280;19522;45.656;11.302;2023-05-21T01:59:57;98071.06;;;15.39;100.00
33161;BME280;19522;45.656;11.302;2023-05-21T02:02:23;98083.13;;;15.50;100.00
33161;BME280;19522;45.656;11.302;2023-05-21T02:04:48;98051.47;;;15.23;100.00
33161;BME280;19522;45.656;11.302;2023-05-21T02:07:14;98031.09;;;15.19;99.81
33161;BME280;19522;45.656;11.302;2023-05-21T02:09:40;98028.69;;;15.11;100.00
33161;BME280;19522;45.656;11.302;2023-05-21T02:12:06;98064.22;;;15.30;99.84
33161;BME280;19522;45.656;11.302;2023-05-21T02:14:31;98002.53;;;14.96;99.57
33161;BME280;19522;45.656;11.302;2023-05-21T02:17:00;98026.09;;;15.16;98.68
33161;BME280;19522;45.656;11.302;2023-05-21T02:19:26;98067.28;;;15.40;98.58
33161;BME280;19522;45.656;11.302;2023-05-21T02:21:52;98064.09;;;15.43;98.65
33161;BME280;19522;45.656;11.302;2023-05-21T02:24:17;98024.13;;;15.05;99.24
33161;BME280;19522;45.656;11.302;2023-05-21T02:26:43;97993.75;;;14.94;98.69
33161;BME280;19522;45.656;11.302;2023-05-21T02:29:08;97985.75;;;14.93;98.97
33161;BME280;19522;45.656;11.302;2023-05-21T02:31:34;98016.44;;;15.14;99.13
33161;BME280;19522;45.656;11.302;2023-05-21T02:34:00;97999.97;;;15.02;98.84
33161;BME280;19522;45.656;11.302;2023-05-21T02:36:25;97946.00;;;14.78;98.52
33161;BME280;19522;45.656;11.302;2023-05-21T02:38:53;97995.13;;;15.04;97.83
33161;BME280;19522;45.656;11.302;2023-05-21T02:41:20;98054.66;;;15.39;100.00
33161;BME280;19522;45.656;11.302;2023-05-21T02:43:45;98041.72;;;15.27;99.77
33161;BME280;19522;45.656;11.302;2023-05-21T02:46:11;98054.88;;;15.37;99.53
33161;BME280;19522;45.656;11.302;2023-05-21T02:48:36;98035.88;;;15.24;99.09
33161;BME280;19522;45.656;11.302;2023-05-21T02:51:02;97860.41;;;14.22;98.89
33161;BME280;19522;45.656;11.302;2023-05-21T02:53:27;98011.72;;;15.21;97.34
33161;BME280;19522;45.656;11.302;2023-05-21T02:55:52;97959.78;;;15.02;96.02
33161;BME280;19522;45.656;11.302;2023-05-21T02:58:18;97990.31;;;15.18;95.98
33161;BME280;19522;45.656;11.302;2023-05-21T03:00:43;97993.44;;;15.21;96.30
33161;BME280;19522;45.656;11.302;2023-05-21T03:03:09;97882.72;;;14.56;96.54
33161;BME280;19522;45.656;11.302;2023-05-21T03:05:35;97846.50;;;14.24;95.86
33161;BME280;19522;45.656;11.302;2023-05-21T03:08:00;97952.25;;;14.98;95.97
33161;BME280;19522;45.656;11.302;2023-05-21T03:10:26;98048.09;;;15.58;94.82
33161;BME280;19522;45.656;11.302;2023-05-21T03:12:51;97994.84;;;15.42;94.38
33161;BME280;19522;45.656;11.302;2023-05-21T03:15:20;98022.13;;;15.49;94.52
33161;BME280;19522;45.656;11.302;2023-05-21T03:17:49;97990.00;;;15.26;94.73
33161;BME280;19522;45.656;11.302;2023-05-21T03:20:14;97951.50;;;15.09;94.11
33161;BME280;19522;45.656;11.302;2023-05-21T03:22:43;98009.94;;;15.45;93.55
33161;BME280;19522;45.656;11.302;2023-05-21T03:25:10;97966.69;;;15.23;92.82
33161;BME280;19522;45.656;11.302;2023-05-21T03:27:37;98016.63;;;15.49;93.39
33161;BME280;19522;45.656;11.302;2023-05-21T03:30:02;97950.31;;;15.05;92.27
33161;BME280;19522;45.656;11.302;2023-05-21T03:32:28;97937.22;;;15.07;91.95
33161;BME280;19522;45.656;11.302;2023-05-21T03:34:53;97943.97;;;15.23;92.33
33161;BME280;19522;45.656;11.302;2023-05-21T03:37:18;97984.25;;;15.46;92.40
33161;BME280;19522;45.656;11.302;2023-05-21T03:39:44;97932.53;;;15.14;92.83
33161;BME280;19522;45.656;11.302;2023-05-21T03:42:09;98024.63;;;15.81;92.62
33161;BME280;19522;45.656;11.302;2023-05-21T03:44:35;98026.03;;;15.72;92.22
33161;BME280;19522;45.656;11.302;2023-05-21T03:47:00;97979.47;;;15.41;92.35
33161;BME280;19522;45.656;11.302;2023-05-21T03:49:26;97817.47;;;14.29;92.24
33161;BME280;19522;45.656;11.302;2023-05-21T03:51:51;98019.78;;;15.65;92.54
33161;BME280;19522;45.656;11.302;2023-05-21T03:54:17;97981.47;;;15.34;92.29
33161;BME280;19522;45.656;11.302;2023-05-21T03:56:42;97927.75;;;15.09;91.88
33161;BME280;19522;45.656;11.302;2023-05-21T03:59:08;97931.28;;;15.10;91.71
33161;BME280;19522;45.656;11.302;2023-05-21T04:01:33;98028.88;;;15.77;91.26
33161;BME280;19522;45.656;11.302;2023-05-21T04:03:59;97922.66;;;15.13;91.35
33161;BME280;19522;45.656;11.302;2023-05-21T04:06:24;97965.44;;;15.38;91.20
33161;BME280;19522;45.656;11.302;2023-05-21T04:08:50;98030.94;;;15.82;91.12
33161;BME280;19522;45.656;11.302;2023-05-21T04:11:16;97941.31;;;15.16;91.35
33161;BME280;19522;45.656;11.302;2023-05-21T04:13:41;98020.34;;;15.55;91.97
33161;BME280;19522;45.656;11.302;2023-05-21T04:16:07;97921.63;;;14.95;92.18
33161;BME280;19522;45.656;11.302;2023-05-21T04:18:33;97963.06;;;15.11;91.95
33161;BME280;19522;45.656;11.302;2023-05-21T04:20:59;97987.56;;;15.36;91.68
33161;BME280;19522;45.656;11.302;2023-05-21T04:23:26;98023.69;;;15.57;92.19
33161;BME280;19522;45.656;11.302;2023-05-21T04:25:51;97853.75;;;14.55;91.86
33161;BME280;19522;45.656;11.302;2023-05-21T04:28:17;98036.59;;;15.87;91.61
33161;BME280;19522;45.656;11.302;2023-05-21T04:30:48;97966.16;;;15.45;90.92
33161;BME280;19522;45.656;11.302;2023-05-21T04:33:14;98047.53;;;15.87;90.93
33161;BME280;19522;45.656;11.302;2023-05-21T04:35:50;98023.28;;;15.72;90.06
33161;BME280;19522;45.656;11.302;2023-05-21T04:38:16;98003.84;;;15.62;90.09
33161;BME280;19522;45.656;11.302;2023-05-21T04:40:47;98020.56;;;15.72;89.71
33161;BME280;19522;45.656;11.302;2023-05-21T04:43:14;98028.94;;;15.89;89.57
33161;BME280;19522;45.656;11.302;2023-05-21T04:45:41;98039.31;;;15.87;89.94
33161;BME280;19522;45.656;11.302;2023-05-21T04:48:07;97972.41;;;15.52;90.54
33161;BME280;19522;45.656;11.302;2023-05-21T04:50:32;97936.72;;;15.29;91.44
33161;BME280;19522;45.656;11.302;2023-05-21T04:52:58;98036.94;;;15.91;90.87
33161;BME280;19522;45.656;11.302;2023-05-21T04:55:23;97989.69;;;15.65;90.97
33161;BME280;19522;45.656;11.302;2023-05-21T04:57:49;97966.16;;;15.45;90.82
33161;BME280;19522;45.656;11.302;2023-05-21T05:00:15;98015.50;;;15.87;90.82
33161;BME280;19522;45.656;11.302;2023-05-21T05:02:41;98046.91;;;16.15;90.87
33161;BME280;19522;45.656;11.302;2023-05-21T05:05:07;98029.72;;;15.96;91.50
33161;BME280;19522;45.656;11.302;2023-05-21T05:07:33;97984.34;;;15.70;90.42
33161;BME280;19522;45.656;11.302;2023-05-21T05:09:58;97945.22;;;15.39;90.71
33161;BME280;19522;45.656;11.302;2023-05-21T05:12:23;98035.50;;;15.88;91.29
33161;BME280;19522;45.656;11.302;2023-05-21T05:14:49;97940.06;;;15.31;91.23
33161;BME280;19522;45.656;11.302;2023-05-21T05:17:14;98038.28;;;16.00;90.27
33161;BME280;19522;45.656;11.302;2023-05-21T05:19:40;98045.19;;;16.02;90.05
33161;BME280;19522;45.656;11.302;2023-05-21T05:22:06;98044.34;;;16.02;90.18
33161;BME280;19522;45.656;11.302;2023-05-21T05:24:31;98034.84;;;16.04;90.77
33161;BME280;19522;45.656;11.302;2023-05-21T05:26:57;98000.50;;;15.90;89.75
33161;BME280;19522;45.656;11.302;2023-05-21T05:29:22;98003.78;;;15.80;89.31
33161;BME280;19522;45.656;11.302;2023-05-21T05:31:48;97981.38;;;15.71;89.69
33161;BME280;19522;45.656;11.302;2023-05-21T05:34:13;97967.22;;;15.63;89.78
33161;BME280;19522;45.656;11.302;2023-05-21T05:36:38;97945.50;;;15.49;89.61
33161;BME280;19522;45.656;11.302;2023-05-21T05:39:04;98011.38;;;15.97;89.77
33161;BME280;19522;45.656;11.302;2023-05-21T05:41:30;97987.59;;;15.79;90.37
33161;BME280;19522;45.656;11.302;2023-05-21T05:43:55;97867.59;;;15.09;90.64
33161;BME280;19522;45.656;11.302;2023-05-21T05:46:21;97988.66;;;15.78;92.02
33161;BME280;19522;45.656;11.302;2023-05-21T05:48:46;97936.66;;;15.35;92.18
33161;BME280;19522;45.656;11.302;2023-05-21T05:51:11;98050.69;;;16.02;92.63
33161;BME280;19522;45.656;11.302;2023-05-21T05:53:37;98048.19;;;16.01;93.14
33161;BME280;19522;45.656;11.302;2023-05-21T05:56:02;98033.72;;;15.94;92.71
33161;BME280;19522;45.656;11.302;2023-05-21T05:58:31;98008.63;;;15.66;91.59
33161;BME280;19522;45.656;11.302;2023-05-21T06:00:57;97955.09;;;15.40;92.15
33161;BME280;19522;45.656;11.302;2023-05-21T06:03:22;98068.19;;;16.13;92.62
33161;BME280;19522;45.656;11.302;2023-05-21T06:05:48;97988.44;;;15.79;91.70
33161;BME280;19522;45.656;11.302;2023-05-21T06:08:14;98056.91;;;16.22;90.86
33161;BME280;19522;45.656;11.302;2023-05-21T06:10:40;98027.22;;;16.07;90.92
33161;BME280;19522;45.656;11.302;2023-05-21T06:13:05;98024.38;;;16.13;89.97
33161;BME280;19522;45.656;11.302;2023-05-21T06:15:30;97993.00;;;15.97;89.99
33161;BME280;19522;45.656;11.302;2023-05-21T06:17:56;97933.28;;;15.64;89.76
33161;BME280;19522;45.656;11.302;2023-05-21T06:20:21;97976.00;;;15.95;90.25
33161;BME280;19522;45.656;11.302;2023-05-21T06:22:47;97990.53;;;16.08;90.42
33161;BME280;19522;45.656;11.302;2023-05-21T06:25:12;97946.31;;;15.80;90.63
33161;BME280;19522;45.656;11.302;2023-05-21T06:27:38;98007.97;;;16.25;90.84
33161;BME280;19522;45.656;11.302;2023-05-21T06:30:04;98046.25;;;16.56;90.01
33161;BME280;19522;45.656;11.302;2023-05-21T06:32:30;97996.78;;;16.27;89.31
33161;BME280;19522;45.656;11.302;2023-05-21T06:34:55;97960.56;;;16.01;89.19
33161;BME280;19522;45.656;11.302;2023-05-21T06:37:21;97963.66;;;16.04;89.39
33161;BME280;19522;45.656;11.302;2023-05-21T06:39:46;97931.44;;;15.88;88.67
33161;BME280;19522;45.656;11.302;2023-05-21T06:42:12;98053.75;;;16.60;88.91
33161;BME280;19522;45.656;11.302;2023-05-21T06:44:37;97991.91;;;16.29;89.01
33161;BME280;19522;45.656;11.302;2023-05-21T06:47:02;97996.41;;;16.47;89.12
33161;BME280;19522;45.656;11.302;2023-05-21T06:49:28;97995.25;;;16.55;88.99
33161;BME280;19522;45.656;11.302;2023-05-21T06:51:53;98001.69;;;16.60;88.05
33161;BME280;19522;45.656;11.302;2023-05-21T06:54:19;98052.22;;;17.00;87.51
33161;BME280;19522;45.656;11.302;2023-05-21T06:56:44;97994.03;;;16.74;86.95
33161;BME280;19522;45.656;11.302;2023-05-21T06:59:10;98049.25;;;17.13;86.55
33161;BME280;19522;45.656;11.302;2023-05-21T07:01:35;98039.09;;;17.14;86.39
33161;BME280;19522;45.656;11.302;2023-05-21T07:04:01;97982.94;;;16.93;86.29
33161;BME280;19522;45.656;11.302;2023-05-21T07:06:26;97952.31;;;16.96;85.90
33161;BME280;19522;45.656;11.302;2023-05-21T07:08:51;97964.88;;;17.21;84.99
33161;BME280;19522;45.656;11.302;2023-05-21T07:11:17;98051.97;;;17.95;83.60
33161;BME280;19522;45.656;11.302;2023-05-21T07:13:42;98046.94;;;18.04;82.07
33161;BME280;19522;45.656;11.302;2023-05-21T07:16:08;97988.03;;;17.83;80.91
33161;BME280;19522;45.656;11.302;2023-05-21T07:18:33;97953.13;;;17.66;80.43
33161;BME280;19522;45.656;11.302;2023-05-21T07:20:58;98047.53;;;18.23;80.53
33161;BME280;19522;45.656;11.302;2023-05-21T07:23:24;97966.03;;;17.66;76.70
33161;BME280;19522;45.656;11.302;2023-05-21T07:25:49;98039.56;;;18.38;77.67
33161;BME280;19522;45.656;11.302;2023-05-21T07:28:15;98048.22;;;18.47;78.43
33161;BME280;19522;45.656;11.302;2023-05-21T07:30:40;97902.38;;;17.52;78.33
33161;BME280;19522;45.656;11.302;2023-05-21T07:33:06;98041.59;;;18.60;77.37
33161;BME280;19522;45.656;11.302;2023-05-21T07:35:31;97989.34;;;18.26;77.18
33161;BME280;19522;45.656;11.302;2023-05-21T07:37:56;97915.84;;;17.99;75.23
33161;BME280;19522;45.656;11.302;2023-05-21T07:40:22;97993.72;;;18.61;75.00
33161;BME280;19522;45.656;11.302;2023-05-21T07:42:47;98029.31;;;19.02;74.83
33161;BME280;19522;45.656;11.302;2023-05-21T07:45:13;97962.81;;;18.71;74.46
33161;BME280;19522;45.656;11.302;2023-05-21T07:47:38;97987.00;;;18.91;74.58
33161;BME280;19522;45.656;11.302;2023-05-21T07:50:04;97989.25;;;19.11;73.59
33161;BME280;19522;45.656;11.302;2023-05-21T07:52:30;98023.50;;;19.43;73.54
33161;BME280;19522;45.656;11.302;2023-05-21T07:54:55;97987.25;;;19.29;73.87
33161;BME280;19522;45.656;11.302;2023-05-21T07:57:20;97992.72;;;19.46;73.90
33161;BME280;19522;45.656;11.302;2023-05-21T07:59:47;97983.97;;;19.54;73.46
33161;BME280;19522;45.656;11.302;2023-05-21T08:02:12;97982.94;;;19.60;71.72
33161;BME280;19522;45.656;11.302;2023-05-21T08:04:38;97960.09;;;19.60;70.75
33161;BME280;19522;45.656;11.302;2023-05-21T08:07:03;98035.09;;;20.22;69.45
33161;BME280;19522;45.656;11.302;2023-05-21T08:09:30;97979.38;;;19.87;68.59
33161;BME280;19522;45.656;11.302;2023-05-21T08:11:56;97924.88;;;19.62;68.43
33161;BME280;19522;45.656;11.302;2023-05-21T08:14:21;98026.03;;;20.27;67.60
33161;BME280;19522;45.656;11.302;2023-05-21T08:16:47;97946.38;;;19.92;68.54
33161;BME280;19522;45.656;11.302;2023-05-21T08:19:12;98033.75;;;20.57;69.34
33161;BME280;19522;45.656;11.302;2023-05-21T08:21:38;98041.94;;;20.79;66.83
33161;BME280;19522;45.656;11.302;2023-05-21T08:24:03;97970.31;;;20.57;65.54
33161;BME280;19522;45.656;11.302;2023-05-21T08:26:29;97920.00;;;20.39;62.92
33161;BME280;19522;45.656;11.302;2023-05-21T08:28:55;97984.03;;;20.84;62.37
33161;BME280;19522;45.656;11.302;2023-05-21T08:31:20;97977.50;;;21.01;62.80
33161;BME280;19522;45.656;11.302;2023-05-21T08:33:52;97942.69;;;20.90;60.79
33161;BME280;19522;45.656;11.302;2023-05-21T08:36:18;98022.16;;;21.46;61.82
33161;BME280;19522;45.656;11.302;2023-05-21T08:38:44;98024.16;;;21.61;59.57
33161;BME280;19522;45.656;11.302;2023-05-21T08:41:11;98030.03;;;21.85;60.46
33161;BME280;19522;45.656;11.302;2023-05-21T08:43:37;98038.09;;;22.07;59.38
33161;BME280;19522;45.656;11.302;2023-05-21T08:46:07;97991.38;;;21.95;58.32
33161;BME280;19522;45.656;11.302;2023-05-21T08:48:33;97991.09;;;22.07;55.07
33161;BME280;19522;45.656;11.302;2023-05-21T08:51:00;97972.59;;;22.18;54.83
33161;BME280;19522;45.656;11.302;2023-05-21T08:53:26;97929.75;;;22.05;54.79
33161;BME280;19522;45.656;11.302;2023-05-21T08:55:52;97946.06;;;22.43;53.44
33161;BME280;19522;45.656;11.302;2023-05-21T08:58:18;97851.25;;;22.06;51.58
33161;BME280;19522;45.656;11.302;2023-05-21T09:00:44;97957.94;;;22.64;51.30
33161;BME280;19522;45.656;11.302;2023-05-21T09:03:09;98027.88;;;23.22;46.10
33161;BME280;19522;45.656;11.302;2023-05-21T09:05:43;98010.91;;;23.33;47.42
33161;BME280;19522;45.656;11.302;2023-05-21T09:08:18;97949.50;;;23.11;49.71
33161;BME280;19522;45.656;11.302;2023-05-21T09:10:50;98028.22;;;23.75;48.43
33161;BME280;19522;45.656;11.302;2023-05-21T09:13:16;97984.44;;;23.72;45.19
33161;BME280;19522;45.656;11.302;2023-05-21T09:15:46;97966.50;;;23.54;48.32
33161;BME280;19522;45.656;11.302;2023-05-21T09:18:12;98010.13;;;23.83;46.58
33161;BME280;19522;45.656;11.302;2023-05-21T09:20:38;97969.78;;;23.67;46.94
33161;BME280;19522;45.656;11.302;2023-05-21T09:23:04;98026.78;;;23.83;45.18
33161;BME280;19522;45.656;11.302;2023-05-21T09:25:31;98028.41;;;23.94;46.27
33161;BME280;19522;45.656;11.302;2023-05-21T09:28:00;98030.25;;;24.09;44.96
33161;BME280;19522;45.656;11.302;2023-05-21T09:30:26;98015.94;;;23.87;44.69
33161;BME280;19522;45.656;11.302;2023-05-21T09:32:55;98001.25;;;23.86;45.29
33161;BME280;19522;45.656;11.302;2023-05-21T09:35:21;98033.81;;;24.15;44.76
33161;BME280;19522;45.656;11.302;2023-05-21T09:37:48;97990.72;;;23.88;41.46
33161;BME280;19522;45.656;11.302;2023-05-21T09:40:15;98003.44;;;24.00;43.52
33161;BME280;19522;45.656;11.302;2023-05-21T09:42:45;98021.63;;;24.11;42.67
33161;BME280;19522;45.656;11.302;2023-05-21T09:45:12;97995.72;;;23.86;42.59
33161;BME280;19522;45.656;11.302;2023-05-21T09:47:41;98025.03;;;24.03;43.23
33161;BME280;19522;45.656;11.302;2023-05-21T09:50:17;97990.41;;;23.90;41.44
33161;BME280;19522;45.656;11.302;2023-05-21T09:52:44;98025.94;;;24.33;43.29
33161;BME280;19522;45.656;11.302;2023-05-21T09:55:11;97989.94;;;24.22;42.50
33161;BME280;19522;45.656;11.302;2023-05-21T10:00:07;97983.09;;;24.09;40.44
33161;BME280;19522;45.656;11.302;2023-05-21T10:02:36;97993.16;;;24.00;39.19
33161;BME280;19522;45.656;11.302;2023-05-21T10:05:04;97990.69;;;23.99;40.41
33161;BME280;19522;45.656;11.302;2023-05-21T10:07:33;97994.03;;;23.95;42.48
33161;BME280;19522;45.656;11.302;2023-05-21T10:10:02;98024.56;;;24.30;41.57
33161;BME280;19522;45.656;11.302;2023-05-21T10:12:29;98013.34;;;24.46;38.87
33161;BME280;19522;45.656;11.302;2023-05-21T10:15:02;98021.06;;;24.14;38.86
33161;BME280;19522;45.656;11.302;2023-05-21T10:17:29;97959.22;;;23.69;38.83
33161;BME280;19522;45.656;11.302;2023-05-21T10:19:55;97934.00;;;23.70;41.58
33161;BME280;19522;45.656;11.302;2023-05-21T10:22:24;98010.97;;;24.63;40.90
33161;BME280;19522;45.656;11.302;2023-05-21T10:24:51;97985.97;;;24.68;38.45
33161;BME280;19522;45.656;11.302;2023-05-21T10:27:17;98030.00;;;24.80;40.71
33161;BME280;19522;45.656;11.302;2023-05-21T10:29:44;98017.44;;;24.88;37.49
33161;BME280;19522;45.656;11.302;2023-05-21T10:32:14;98016.00;;;24.91;39.38
33161;BME280;19522;45.656;11.302;2023-05-21T10:34:44;97949.59;;;24.35;36.90
33161;BME280;19522;45.656;11.302;2023-05-21T10:37:12;97997.94;;;24.93;38.24
33161;BME280;19522;45.656;11.302;2023-05-21T10:39:38;98003.47;;;25.23;38.16
33161;BME280;19522;45.656;11.302;2023-05-21T10:53:05;97927.50;;;24.25;37.27
33161;BME280;19522;45.656;11.302;2023-05-21T10:55:46;98010.88;;;24.79;38.21
33161;BME280;19522;45.656;11.302;2023-05-21T11:00:53;97978.59;;;24.53;38.25
33161;BME280;19522;45.656;11.302;2023-05-21T11:03:20;97963.50;;;24.65;36.78
33161;BME280;19522;45.656;11.302;2023-05-21T11:05:51;97994.78;;;25.05;38.85
33161;BME280;19522;45.656;11.302;2023-05-21T11:08:24;97995.34;;;25.26;38.75
33161;BME280;19522;45.656;11.302;2023-05-21T11:10:57;97958.47;;;25.20;37.33
33161;BME280;19522;45.656;11.302;2023-05-21T11:13:24;97968.25;;;25.42;38.60
33161;BME280;19522;45.656;11.302;2023-05-21T11:18:21;97877.41;;;24.70;36.79
33161;BME280;19522;45.656;11.302;2023-05-21T11:20:50;97996.78;;;25.48;36.06
33161;BME280;19522;45.656;11.302;2023-05-21T11:23:15;98007.47;;;25.60;34.52
33161;BME280;19522;45.656;11.302;2023-05-21T11:25:41;97945.56;;;25.30;36.24
33161;BME280;19522;45.656;11.302;2023-05-21T11:28:06;97993.88;;;25.58;35.14
33161;BME280;19522;45.656;11.302;2023-05-21T11:30:33;97905.94;;;25.00;36.74
33161;BME280;19522;45.656;11.302;2023-05-21T11:38:09;97959.53;;;25.25;36.26
33161;BME280;19522;45.656;11.302;2023-05-21T11:40:34;97980.00;;;25.34;37.21
33161;BME280;19522;45.656;11.302;2023-05-21T11:43:00;97973.50;;;25.44;39.00
33161;BME280;19522;45.656;11.302;2023-05-21T11:45:30;97920.16;;;25.42;36.75
33161;BME280;19522;45.656;11.302;2023-05-21T11:47:56;97972.63;;;25.87;36.33
33161;BME280;19522;45.656;11.302;2023-05-21T11:50:22;97968.09;;;25.72;35.33
33161;BME280;19522;45.656;11.302;2023-05-21T11:52:48;97972.19;;;25.79;33.36
33161;BME280;19522;45.656;11.302;2023-05-21T11:55:14;97766.16;;;24.42;37.31
33161;BME280;19522;45.656;11.302;2023-05-21T11:57:41;97978.03;;;25.78;36.53
33161;BME280;19522;45.656;11.302;2023-05-21T12:00:13;97968.69;;;26.07;37.58
33161;BME280;19522;45.656;11.302;2023-05-21T12:02:46;97857.69;;;25.58;36.47
33161;BME280;19522;45.656;11.302;2023-05-21T12:05:12;97954.66;;;25.98;34.94
33161;BME280;19522;45.656;11.302;2023-05-21T12:07:38;97933.00;;;25.95;36.18
33161;BME280;19522;45.656;11.302;2023-05-21T12:10:04;97903.25;;;25.76;34.55
33161;BME280;19522;45.656;11.302;2023-05-21T12:12:30;97939.34;;;26.20;36.36
33161;BME280;19522;45.656;11.302;2023-05-21T12:14:57;97962.22;;;26.50;33.24
33161;BME280;19522;45.656;11.302;2023-05-21T12:17:24;97966.81;;;26.87;36.32
33161;BME280;19522;45.656;11.302;2023-05-21T12:19:53;97968.59;;;26.97;35.31
33161;BME280;19522;45.656;11.302;2023-05-21T12:22:22;97954.78;;;27.06;35.59
33161;BME280;19522;45.656;11.302;2023-05-21T12:24:49;97901.44;;;26.85;34.68
33161;BME280;19522;45.656;11.302;2023-05-21T12:27:14;97879.31;;;26.47;33.04
33161;BME280;19522;45.656;11.302;2023-05-21T12:29:48;97901.88;;;26.45;33.87
33161;BME280;19522;45.656;11.302;2023-05-21T12:32:15;97926.28;;;26.81;35.05
33161;BME280;19522;45.656;11.302;2023-05-21T12:34:49;97954.22;;;27.32;34.58
33161;BME280;19522;45.656;11.302;2023-05-21T12:37:24;97842.75;;;26.81;33.29
33161;BME280;19522;45.656;11.302;2023-05-21T12:39:51;97948.69;;;27.60;33.31
33161;BME280;19522;45.656;11.302;2023-05-21T12:44:51;97958.47;;;27.29;33.63
33161;BME280;19522;45.656;11.302;2023-05-21T12:47:17;97891.28;;;26.75;34.04
33161;BME280;19522;45.656;11.302;2023-05-21T12:49:43;97968.22;;;27.46;33.82
33161;BME280;19522;45.656;11.302;2023-05-21T12:52:10;97884.09;;;27.02;34.28
33161;BME280;19522;45.656;11.302;2023-05-21T12:54:38;97885.00;;;27.25;32.33
33161;BME280;19522;45.656;11.302;2023-05-21T12:59:54;97954.66;;;28.04;32.97
33161;BME280;19522;45.656;11.302;2023-05-21T13:04:46;97946.84;;;27.78;32.05
33161;BME280;19522;45.656;11.302;2023-05-21T13:07:13;97928.34;;;27.17;33.43
33161;BME280;19522;45.656;11.302;2023-05-21T13:09:40;97946.41;;;27.48;33.09
33161;BME280;19522;45.656;11.302;2023-05-21T13:12:05;97852.53;;;26.93;33.10
33161;BME280;19522;45.656;11.302;2023-05-21T13:14:31;97945.34;;;27.72;35.39
33161;BME280;19522;45.656;11.302;2023-05-21T13:16:56;97878.13;;;27.59;32.83